JUST35 YSHW-YSWG
Flight info
| Callsign | JUST35 |
|---|---|
| Flight time | 1h 20m |
| Altitude | 3000 |
| Route | DCT TWRN BWL GLB ASST FIT DCT |
| Aircraft | H60/M-SDFGRY/LB1 |
Departure
| Time | 2026-05-01 08:28 |
|---|---|
| Airport | Holsworthy (Military) Airport (YSHW) |
Arrival
| Time | 2026-05-01 09:48 |
|---|---|
| Airport | Wagga Wagga Airport (YSWG) |
| Time | Latitude | Longitude | Altitude | Speed | Heading |
|---|---|---|---|---|---|
| 2026-05-01 08:20 | -33.99533 | 150.95304 | 245 ft | 0 kts | 124° |
| 2026-05-01 08:27 | -33.99543 | 150.95321 | 245 ft | 5 kts | 146° |
| 2026-05-01 08:27 | -33.99575 | 150.95310 | 244 ft | 3 kts | 211° |
| 2026-05-01 08:28 | -33.99587 | 150.95301 | 245 ft | 2 kts | 213° |
| 2026-05-01 08:28 | -33.99617 | 150.95309 | 253 ft | 14 kts | 123° |
| 2026-05-01 08:28 | -33.99758 | 150.95565 | 492 ft | 59 kts | 121° |
| 2026-05-01 08:28 | -33.99718 | 150.96076 | 866 ft | 86 kts | 26° |
| 2026-05-01 08:29 | -33.99150 | 150.95883 | 1014 ft | 91 kts | 301° |
| 2026-05-01 08:29 | -33.98685 | 150.95281 | 1214 ft | 111 kts | 303° |
| 2026-05-01 08:29 | -33.98148 | 150.94526 | 1594 ft | 123 kts | 303° |
| 2026-05-01 08:29 | -33.97612 | 150.93735 | 1913 ft | 119 kts | 305° |
| 2026-05-01 08:30 | -33.97091 | 150.92964 | 1847 ft | 119 kts | 309° |
| 2026-05-01 08:30 | -33.96618 | 150.92284 | 1888 ft | 98 kts | 307° |
| 2026-05-01 08:30 | -33.96210 | 150.91645 | 1821 ft | 99 kts | 305° |
| 2026-05-01 08:30 | -33.95746 | 150.90959 | 2007 ft | 112 kts | 308° |
| 2026-05-01 08:31 | -33.95183 | 150.90214 | 2319 ft | 122 kts | 310° |
| 2026-05-01 08:31 | -33.94607 | 150.89429 | 2325 ft | 127 kts | 300° |
| 2026-05-01 08:31 | -33.94744 | 150.88426 | 2287 ft | 134 kts | 232° |
| 2026-05-01 08:31 | -33.95669 | 150.88047 | 2371 ft | 145 kts | 198° |
| 2026-05-01 08:32 | -33.96656 | 150.87735 | 2516 ft | 148 kts | 199° |
| 2026-05-01 08:32 | -33.97653 | 150.87548 | 2564 ft | 145 kts | 193° |
| 2026-05-01 08:32 | -33.98656 | 150.87305 | 2030 ft | 152 kts | 197° |
| 2026-05-01 08:32 | -33.99693 | 150.86990 | 1858 ft | 154 kts | 199° |
| 2026-05-01 08:33 | -34.00797 | 150.86597 | 1736 ft | 178 kts | 201° |
| 2026-05-01 08:33 | -34.01977 | 150.86160 | 1612 ft | 177 kts | 200° |
| 2026-05-01 08:33 | -34.03131 | 150.85742 | 1652 ft | 174 kts | 200° |
| 2026-05-01 08:33 | -34.04285 | 150.85321 | 1678 ft | 174 kts | 200° |
| 2026-05-01 08:34 | -34.05441 | 150.84899 | 1687 ft | 174 kts | 200° |
| 2026-05-01 08:34 | -34.06582 | 150.84433 | 1690 ft | 173 kts | 210° |
| 2026-05-01 08:34 | -34.07553 | 150.83613 | 1693 ft | 171 kts | 224° |
| 2026-05-01 08:34 | -34.08448 | 150.82705 | 1698 ft | 170 kts | 224° |
| 2026-05-01 08:35 | -34.09351 | 150.81791 | 1700 ft | 170 kts | 224° |
| 2026-05-01 08:35 | -34.10323 | 150.80961 | 1700 ft | 171 kts | 218° |
| 2026-05-01 08:35 | -34.11300 | 150.80143 | 1696 ft | 171 kts | 218° |
| 2026-05-01 08:35 | -34.12277 | 150.79325 | 1695 ft | 171 kts | 218° |
| 2026-05-01 08:36 | -34.13254 | 150.78507 | 1696 ft | 171 kts | 218° |
| 2026-05-01 08:36 | -34.14219 | 150.77702 | 1744 ft | 167 kts | 218° |
| 2026-05-01 08:36 | -34.15150 | 150.76914 | 2098 ft | 165 kts | 218° |
| 2026-05-01 08:36 | -34.16091 | 150.76087 | 2308 ft | 171 kts | 219° |
| 2026-05-01 08:37 | -34.17069 | 150.75282 | 2459 ft | 175 kts | 216° |
| 2026-05-01 08:37 | -34.18081 | 150.74461 | 2563 ft | 174 kts | 219° |
| 2026-05-01 08:37 | -34.19053 | 150.73584 | 2679 ft | 177 kts | 222° |
| 2026-05-01 08:37 | -34.19983 | 150.72661 | 2658 ft | 173 kts | 223° |
| 2026-05-01 08:38 | -34.20914 | 150.71736 | 2673 ft | 174 kts | 223° |
| 2026-05-01 08:38 | -34.21847 | 150.70809 | 2680 ft | 174 kts | 223° |
| 2026-05-01 08:38 | -34.22772 | 150.69890 | 2683 ft | 173 kts | 223° |
| 2026-05-01 08:38 | -34.23702 | 150.68965 | 2685 ft | 173 kts | 223° |
| 2026-05-01 08:39 | -34.24633 | 150.68038 | 2687 ft | 174 kts | 223° |
| 2026-05-01 08:39 | -34.25551 | 150.67127 | 2687 ft | 172 kts | 223° |
| 2026-05-01 08:39 | -34.26481 | 150.66204 | 2686 ft | 174 kts | 223° |
| 2026-05-01 08:39 | -34.27410 | 150.65280 | 2687 ft | 173 kts | 223° |
| 2026-05-01 08:40 | -34.29274 | 150.63432 | 2685 ft | 173 kts | 223° |
| 2026-05-01 08:40 | -34.30205 | 150.62507 | 2686 ft | 173 kts | 223° |
| 2026-05-01 08:40 | -34.31136 | 150.61580 | 2686 ft | 174 kts | 223° |
| 2026-05-01 08:41 | -34.32068 | 150.60653 | 2685 ft | 174 kts | 223° |
| 2026-05-01 08:41 | -34.33002 | 150.59724 | 2687 ft | 173 kts | 223° |
| 2026-05-01 08:41 | -34.33933 | 150.58795 | 2685 ft | 173 kts | 223° |
| 2026-05-01 08:41 | -34.34868 | 150.57865 | 2685 ft | 174 kts | 223° |
| 2026-05-01 08:42 | -34.35804 | 150.56933 | 2686 ft | 175 kts | 223° |
| 2026-05-01 08:42 | -34.36737 | 150.56006 | 2686 ft | 173 kts | 223° |
| 2026-05-01 08:42 | -34.37657 | 150.55092 | 2687 ft | 173 kts | 223° |
| 2026-05-01 08:42 | -34.38591 | 150.54164 | 2687 ft | 173 kts | 223° |
| 2026-05-01 08:43 | -34.39527 | 150.53233 | 2687 ft | 174 kts | 223° |
| 2026-05-01 08:43 | -34.40456 | 150.52300 | 2686 ft | 175 kts | 224° |
| 2026-05-01 08:43 | -34.41328 | 150.51275 | 2692 ft | 174 kts | 227° |
| 2026-05-01 08:43 | -34.42196 | 150.50256 | 2688 ft | 174 kts | 227° |
| 2026-05-01 08:44 | -34.43061 | 150.49236 | 2687 ft | 174 kts | 227° |
| 2026-05-01 08:44 | -34.43918 | 150.48228 | 2687 ft | 174 kts | 227° |
| 2026-05-01 08:44 | -34.44785 | 150.47210 | 2686 ft | 174 kts | 227° |
| 2026-05-01 08:44 | -34.45655 | 150.46187 | 2688 ft | 175 kts | 227° |
| 2026-05-01 08:45 | -34.46527 | 150.45158 | 2686 ft | 176 kts | 227° |
| 2026-05-01 08:45 | -34.47393 | 150.44129 | 2712 ft | 170 kts | 227° |
| 2026-05-01 08:45 | -34.48200 | 150.43056 | 2709 ft | 169 kts | 240° |
| 2026-05-01 08:45 | -34.48695 | 150.41772 | 2930 ft | 166 kts | 253° |
| 2026-05-01 08:46 | -34.49168 | 150.40493 | 3144 ft | 169 kts | 250° |
| 2026-05-01 08:46 | -34.49727 | 150.39225 | 3254 ft | 171 kts | 242° |
| 2026-05-01 08:46 | -34.50296 | 150.37998 | 3536 ft | 160 kts | 244° |
| 2026-05-01 08:46 | -34.50838 | 150.36896 | 3657 ft | 151 kts | 241° |
| 2026-05-01 08:47 | -34.51441 | 150.35726 | 3630 ft | 171 kts | 240° |
| 2026-05-01 08:47 | -34.52046 | 150.34490 | 3633 ft | 176 kts | 242° |
| 2026-05-01 08:47 | -34.52621 | 150.33194 | 3575 ft | 175 kts | 244° |
| 2026-05-01 08:47 | -34.53194 | 150.31908 | 3584 ft | 175 kts | 244° |
| 2026-05-01 08:48 | -34.53769 | 150.30618 | 3591 ft | 174 kts | 244° |
| 2026-05-01 08:48 | -34.54344 | 150.29327 | 3589 ft | 173 kts | 244° |
| 2026-05-01 08:48 | -34.54916 | 150.28042 | 3588 ft | 175 kts | 244° |
| 2026-05-01 08:48 | -34.55492 | 150.26749 | 3586 ft | 175 kts | 244° |
| 2026-05-01 08:49 | -34.56152 | 150.25526 | 3582 ft | 175 kts | 239° |
| 2026-05-01 08:49 | -34.56815 | 150.24295 | 3588 ft | 174 kts | 239° |
| 2026-05-01 08:49 | -34.57478 | 150.23063 | 3582 ft | 174 kts | 239° |
| 2026-05-01 08:49 | -34.58140 | 150.21829 | 3588 ft | 175 kts | 239° |
| 2026-05-01 08:50 | -34.58794 | 150.20612 | 3592 ft | 174 kts | 239° |
| 2026-05-01 08:50 | -34.59459 | 150.19380 | 3593 ft | 174 kts | 239° |
| 2026-05-01 08:50 | -34.60126 | 150.18146 | 3588 ft | 175 kts | 239° |
| 2026-05-01 08:50 | -34.60791 | 150.16913 | 3585 ft | 175 kts | 239° |
| 2026-05-01 08:51 | -34.61455 | 150.15683 | 3588 ft | 174 kts | 239° |
| 2026-05-01 08:51 | -34.62119 | 150.14452 | 3591 ft | 175 kts | 239° |
| 2026-05-01 08:51 | -34.62784 | 150.13220 | 3589 ft | 174 kts | 239° |
| 2026-05-01 08:51 | -34.63448 | 150.11988 | 3594 ft | 174 kts | 239° |
| 2026-05-01 08:52 | -34.64110 | 150.10756 | 3593 ft | 174 kts | 239° |
| 2026-05-01 08:52 | -34.64764 | 150.09542 | 3587 ft | 173 kts | 239° |
| 2026-05-01 08:52 | -34.65430 | 150.08310 | 3589 ft | 174 kts | 239° |
| 2026-05-01 08:52 | -34.66069 | 150.07064 | 3593 ft | 174 kts | 242° |
| 2026-05-01 08:53 | -34.66690 | 150.05802 | 3593 ft | 174 kts | 242° |
| 2026-05-01 08:53 | -34.67311 | 150.04543 | 3591 ft | 175 kts | 242° |
| 2026-05-01 08:53 | -34.67936 | 150.03279 | 3589 ft | 174 kts | 242° |
| 2026-05-01 08:53 | -34.68560 | 150.02017 | 3594 ft | 174 kts | 242° |
| 2026-05-01 08:54 | -34.69184 | 150.00755 | 3591 ft | 175 kts | 242° |
| 2026-05-01 08:54 | -34.69808 | 149.99493 | 3591 ft | 174 kts | 242° |
| 2026-05-01 08:54 | -34.70434 | 149.98232 | 3590 ft | 175 kts | 242° |
| 2026-05-01 08:54 | -34.71057 | 149.96973 | 3589 ft | 174 kts | 242° |
| 2026-05-01 08:55 | -34.71673 | 149.95726 | 3589 ft | 175 kts | 242° |
| 2026-05-01 08:55 | -34.72297 | 149.94462 | 3589 ft | 174 kts | 241° |
| 2026-05-01 08:55 | -34.72919 | 149.93198 | 3592 ft | 174 kts | 241° |
| 2026-05-01 08:55 | -34.73543 | 149.91934 | 3595 ft | 174 kts | 242° |
| 2026-05-01 08:56 | -34.74165 | 149.90672 | 3585 ft | 174 kts | 242° |
| 2026-05-01 08:56 | -34.74786 | 149.89409 | 3590 ft | 174 kts | 241° |
| 2026-05-01 08:56 | -34.75394 | 149.88126 | 3591 ft | 175 kts | 249° |
| 2026-05-01 08:56 | -34.76025 | 149.86857 | 3584 ft | 175 kts | 245° |
| 2026-05-01 08:57 | -34.76717 | 149.85630 | 3589 ft | 177 kts | 243° |
| 2026-05-01 08:57 | -34.77277 | 149.84314 | 3600 ft | 175 kts | 252° |
| 2026-05-01 08:57 | -34.77844 | 149.83006 | 3596 ft | 176 kts | 248° |
| 2026-05-01 08:57 | -34.78466 | 149.81753 | 3596 ft | 176 kts | 245° |
| 2026-05-01 08:58 | -34.79152 | 149.80529 | 3590 ft | 175 kts | 241° |
| 2026-05-01 08:58 | -34.79724 | 149.79287 | 3499 ft | 163 kts | 250° |
| 2026-05-01 08:58 | -34.79891 | 149.77964 | 3585 ft | 151 kts | 267° |
| 2026-05-01 08:58 | -34.79972 | 149.76704 | 3174 ft | 150 kts | 263° |
| 2026-05-01 08:59 | -34.80227 | 149.75495 | 2903 ft | 146 kts | 257° |
| 2026-05-01 08:59 | -34.80462 | 149.74328 | 2778 ft | 139 kts | 253° |
| 2026-05-01 08:59 | -34.81182 | 149.73740 | 2490 ft | 137 kts | 176° |
| 2026-05-01 08:59 | -34.82173 | 149.73821 | 2594 ft | 145 kts | 180° |
| 2026-05-01 09:00 | -34.83226 | 149.73874 | 2580 ft | 154 kts | 181° |
| 2026-05-01 09:00 | -34.84327 | 149.73928 | 2693 ft | 168 kts | 181° |
| 2026-05-01 09:00 | -34.85540 | 149.73982 | 2673 ft | 179 kts | 181° |
| 2026-05-01 09:00 | -34.86772 | 149.74061 | 2524 ft | 177 kts | 179° |
| 2026-05-01 09:01 | -34.87846 | 149.74135 | 2444 ft | 139 kts | 180° |
| 2026-05-01 09:01 | -34.88911 | 149.74237 | 2580 ft | 167 kts | 180° |
| 2026-05-01 09:01 | -34.90126 | 149.74314 | 2617 ft | 181 kts | 180° |
| 2026-05-01 09:01 | -34.91397 | 149.74410 | 2630 ft | 179 kts | 181° |
| 2026-05-01 09:02 | -34.92664 | 149.74474 | 2636 ft | 186 kts | 180° |
| 2026-05-01 09:02 | -34.93699 | 149.75220 | 2630 ft | 181 kts | 121° |
| 2026-05-01 09:02 | -34.93768 | 149.76732 | 2717 ft | 184 kts | 82° |
| 2026-05-01 09:02 | -34.93175 | 149.78118 | 2736 ft | 185 kts | 49° |
| 2026-05-01 09:03 | -34.92127 | 149.78928 | 2801 ft | 181 kts | 18° |
| 2026-05-01 09:03 | -34.90926 | 149.78624 | 2606 ft | 185 kts | 335° |
| 2026-05-01 09:03 | -34.89698 | 149.78167 | 2542 ft | 179 kts | 342° |
| 2026-05-01 09:03 | -34.88573 | 149.77632 | 2548 ft | 167 kts | 336° |
| 2026-05-01 09:04 | -34.87500 | 149.77180 | 2635 ft | 162 kts | 341° |
| 2026-05-01 09:04 | -34.86416 | 149.76750 | 2629 ft | 165 kts | 340° |
| 2026-05-01 09:04 | -34.85358 | 149.76264 | 2843 ft | 158 kts | 335° |
| 2026-05-01 09:04 | -34.84341 | 149.75730 | 3034 ft | 160 kts | 333° |
| 2026-05-01 09:05 | -34.83292 | 149.75179 | 3238 ft | 168 kts | 334° |
| 2026-05-01 09:05 | -34.82236 | 149.74590 | 3521 ft | 166 kts | 332° |
| 2026-05-01 09:05 | -34.81310 | 149.73798 | 3761 ft | 163 kts | 304° |
| 2026-05-01 09:05 | -34.80992 | 149.72533 | 4044 ft | 154 kts | 274° |
| 2026-05-01 09:06 | -34.81086 | 149.71215 | 4245 ft | 162 kts | 268° |
| 2026-05-01 09:06 | -34.81117 | 149.69823 | 4288 ft | 165 kts | 271° |
| 2026-05-01 09:06 | -34.81185 | 149.68428 | 4437 ft | 169 kts | 263° |
| 2026-05-01 09:06 | -34.81292 | 149.67016 | 4585 ft | 162 kts | 265° |
| 2026-05-01 09:07 | -34.81419 | 149.65626 | 4675 ft | 170 kts | 269° |
| 2026-05-01 09:07 | -34.81484 | 149.64166 | 4623 ft | 176 kts | 268° |
| 2026-05-01 09:07 | -34.81584 | 149.62791 | 4639 ft | 155 kts | 266° |
| 2026-05-01 09:07 | -34.81677 | 149.61531 | 4650 ft | 146 kts | 266° |
| 2026-05-01 09:08 | -34.81769 | 149.60323 | 4643 ft | 141 kts | 266° |
| 2026-05-01 09:08 | -34.81835 | 149.59133 | 4732 ft | 150 kts | 269° |
| 2026-05-01 09:08 | -34.81921 | 149.57786 | 4742 ft | 169 kts | 266° |
| 2026-05-01 09:08 | -34.81981 | 149.56332 | 4695 ft | 169 kts | 270° |
| 2026-05-01 09:09 | -34.82007 | 149.55015 | 4693 ft | 145 kts | 270° |
| 2026-05-01 09:09 | -34.82035 | 149.53863 | 4693 ft | 132 kts | 270° |
| 2026-05-01 09:09 | -34.82078 | 149.52784 | 4691 ft | 124 kts | 266° |
| 2026-05-01 09:09 | -34.82144 | 149.51755 | 4692 ft | 120 kts | 266° |
| 2026-05-01 09:10 | -34.82209 | 149.50762 | 4684 ft | 117 kts | 267° |
| 2026-05-01 09:10 | -34.82256 | 149.49614 | 4259 ft | 150 kts | 268° |
| 2026-05-01 09:10 | -34.82364 | 149.48288 | 3521 ft | 162 kts | 264° |
| 2026-05-01 09:10 | -34.82493 | 149.46900 | 3019 ft | 165 kts | 264° |
| 2026-05-01 09:11 | -34.82632 | 149.45472 | 2926 ft | 176 kts | 264° |
| 2026-05-01 09:11 | -34.82769 | 149.44057 | 2960 ft | 154 kts | 264° |
| 2026-05-01 09:11 | -34.82858 | 149.42856 | 3039 ft | 149 kts | 269° |
| 2026-05-01 09:11 | -34.82912 | 149.41485 | 3009 ft | 173 kts | 268° |
| 2026-05-01 09:12 | -34.82978 | 149.40043 | 3154 ft | 171 kts | 267° |
| 2026-05-01 09:12 | -34.83029 | 149.38589 | 3188 ft | 169 kts | 269° |
| 2026-05-01 09:12 | -34.83077 | 149.37166 | 3207 ft | 168 kts | 269° |
| 2026-05-01 09:12 | -34.83125 | 149.35741 | 3213 ft | 168 kts | 268° |
| 2026-05-01 09:13 | -34.83204 | 149.34326 | 3209 ft | 167 kts | 266° |
| 2026-05-01 09:13 | -34.83292 | 149.32908 | 3216 ft | 168 kts | 266° |
| 2026-05-01 09:13 | -34.83380 | 149.31489 | 3220 ft | 168 kts | 266° |
| 2026-05-01 09:13 | -34.83469 | 149.30069 | 3220 ft | 169 kts | 266° |
| 2026-05-01 09:14 | -34.83556 | 149.28652 | 3222 ft | 168 kts | 266° |
| 2026-05-01 09:14 | -34.83644 | 149.27240 | 3221 ft | 168 kts | 266° |
| 2026-05-01 09:14 | -34.83733 | 149.25816 | 3224 ft | 168 kts | 266° |
| 2026-05-01 09:14 | -34.83820 | 149.24428 | 3221 ft | 166 kts | 266° |
| 2026-05-01 09:15 | -34.83909 | 149.23010 | 3222 ft | 168 kts | 266° |
| 2026-05-01 09:15 | -34.83999 | 149.21596 | 3222 ft | 169 kts | 266° |
| 2026-05-01 09:15 | -34.84088 | 149.20177 | 3221 ft | 168 kts | 266° |
| 2026-05-01 09:15 | -34.84176 | 149.18754 | 3222 ft | 168 kts | 266° |
| 2026-05-01 09:16 | -34.84263 | 149.17336 | 3222 ft | 168 kts | 266° |
| 2026-05-01 09:16 | -34.84351 | 149.15919 | 3221 ft | 168 kts | 266° |
| 2026-05-01 09:16 | -34.84437 | 149.14505 | 3222 ft | 169 kts | 266° |
| 2026-05-01 09:17 | -34.84615 | 149.11662 | 3215 ft | 168 kts | 266° |
| 2026-05-01 09:17 | -34.84704 | 149.10246 | 3223 ft | 167 kts | 266° |
| 2026-05-01 09:17 | -34.84884 | 149.07403 | 3224 ft | 168 kts | 266° |
| 2026-05-01 09:18 | -34.84972 | 149.06000 | 3226 ft | 168 kts | 266° |
| 2026-05-01 09:18 | -34.85148 | 149.03172 | 3219 ft | 168 kts | 266° |
| 2026-05-01 09:19 | -34.85327 | 149.00340 | 3224 ft | 169 kts | 266° |
| 2026-05-01 09:19 | -34.85418 | 148.98925 | 3222 ft | 167 kts | 266° |
| 2026-05-01 09:19 | -34.85510 | 148.97508 | 3221 ft | 169 kts | 266° |
| 2026-05-01 09:20 | -34.85690 | 148.94680 | 3224 ft | 168 kts | 266° |
| 2026-05-01 09:20 | -34.86016 | 148.91893 | 3240 ft | 165 kts | 256° |
| 2026-05-01 09:21 | -34.86687 | 148.89173 | 3228 ft | 166 kts | 255° |
| 2026-05-01 09:21 | -34.87020 | 148.87811 | 3221 ft | 168 kts | 255° |
| 2026-05-01 09:21 | -34.87685 | 148.85078 | 3223 ft | 168 kts | 255° |
| 2026-05-01 09:22 | -34.88350 | 148.82342 | 3222 ft | 169 kts | 255° |
| 2026-05-01 09:22 | -34.89021 | 148.79609 | 3222 ft | 168 kts | 255° |
| 2026-05-01 09:23 | -34.89351 | 148.78272 | 3225 ft | 168 kts | 255° |
| 2026-05-01 09:23 | -34.90025 | 148.75528 | 3222 ft | 169 kts | 255° |
| 2026-05-01 09:24 | -34.90695 | 148.72805 | 3217 ft | 169 kts | 255° |
| 2026-05-01 09:24 | -34.91034 | 148.71444 | 3224 ft | 169 kts | 255° |
| 2026-05-01 09:24 | -34.91707 | 148.68710 | 3221 ft | 168 kts | 255° |
| 2026-05-01 09:25 | -34.92366 | 148.65964 | 3221 ft | 169 kts | 255° |
| 2026-05-01 09:25 | -34.93026 | 148.63245 | 3222 ft | 169 kts | 255° |
| 2026-05-01 09:26 | -34.93359 | 148.61873 | 3225 ft | 168 kts | 255° |
| 2026-05-01 09:26 | -34.94006 | 148.59126 | 3225 ft | 168 kts | 255° |
| 2026-05-01 09:26 | -34.94337 | 148.57746 | 3222 ft | 169 kts | 255° |
| 2026-05-01 09:27 | -34.95000 | 148.54987 | 3226 ft | 169 kts | 255° |
| 2026-05-01 09:27 | -34.95331 | 148.53625 | 3221 ft | 169 kts | 255° |
| 2026-05-01 09:27 | -34.95658 | 148.52269 | 3211 ft | 166 kts | 255° |
| 2026-05-01 09:28 | -34.95986 | 148.50905 | 3222 ft | 167 kts | 255° |
| 2026-05-01 09:28 | -34.96317 | 148.49537 | 3222 ft | 169 kts | 255° |
| 2026-05-01 09:28 | -34.96652 | 148.48171 | 3219 ft | 168 kts | 255° |
| 2026-05-01 09:28 | -34.96986 | 148.46803 | 3221 ft | 168 kts | 255° |
| 2026-05-01 09:29 | -34.97647 | 148.44086 | 3219 ft | 169 kts | 255° |
| 2026-05-01 09:29 | -34.97980 | 148.42717 | 3217 ft | 168 kts | 255° |
| 2026-05-01 09:30 | -34.98647 | 148.39986 | 3222 ft | 168 kts | 255° |
| 2026-05-01 09:30 | -34.98981 | 148.38619 | 3222 ft | 167 kts | 255° |
| 2026-05-01 09:30 | -34.99647 | 148.35892 | 3216 ft | 168 kts | 255° |
| 2026-05-01 09:31 | -34.99979 | 148.34527 | 3222 ft | 168 kts | 255° |
| 2026-05-01 09:31 | -35.00312 | 148.33164 | 3222 ft | 166 kts | 255° |
| 2026-05-01 09:31 | -35.00981 | 148.30443 | 3225 ft | 168 kts | 255° |
| 2026-05-01 09:32 | -35.01310 | 148.29097 | 3223 ft | 167 kts | 255° |
| 2026-05-01 09:32 | -35.01973 | 148.26375 | 3225 ft | 169 kts | 255° |
| 2026-05-01 09:32 | -35.02304 | 148.25015 | 3224 ft | 168 kts | 255° |
| 2026-05-01 09:33 | -35.02637 | 148.23656 | 3224 ft | 168 kts | 255° |
| 2026-05-01 09:33 | -35.02970 | 148.22295 | 3224 ft | 167 kts | 255° |
| 2026-05-01 09:33 | -35.03634 | 148.19572 | 3222 ft | 167 kts | 255° |
| 2026-05-01 09:34 | -35.03966 | 148.18212 | 3217 ft | 168 kts | 255° |
| 2026-05-01 09:34 | -35.04299 | 148.16849 | 3219 ft | 168 kts | 255° |
| 2026-05-01 09:34 | -35.04968 | 148.14121 | 3222 ft | 168 kts | 255° |
| 2026-05-01 09:35 | -35.05303 | 148.12757 | 3222 ft | 168 kts | 255° |
| 2026-05-01 09:35 | -35.05973 | 148.10030 | 3222 ft | 168 kts | 255° |
| 2026-05-01 09:35 | -35.06308 | 148.08685 | 3224 ft | 168 kts | 255° |
| 2026-05-01 09:36 | -35.06645 | 148.07328 | 3215 ft | 168 kts | 255° |
| 2026-05-01 09:36 | -35.06982 | 148.05964 | 3224 ft | 168 kts | 255° |
| 2026-05-01 09:36 | -35.07319 | 148.04609 | 3222 ft | 168 kts | 255° |
| 2026-05-01 09:36 | -35.07652 | 148.03244 | 3217 ft | 167 kts | 255° |
| 2026-05-01 09:37 | -35.07985 | 148.01881 | 3217 ft | 167 kts | 255° |
| 2026-05-01 09:37 | -35.08652 | 147.99162 | 3222 ft | 167 kts | 255° |
| 2026-05-01 09:37 | -35.08986 | 147.97800 | 3222 ft | 168 kts | 255° |
| 2026-05-01 09:38 | -35.09651 | 147.95090 | 3222 ft | 168 kts | 255° |
| 2026-05-01 09:38 | -35.09985 | 147.93728 | 3219 ft | 167 kts | 255° |
| 2026-05-01 09:38 | -35.10320 | 147.92360 | 3219 ft | 168 kts | 256° |
| 2026-05-01 09:39 | -35.10875 | 147.89609 | 3222 ft | 167 kts | 258° |
| 2026-05-01 09:39 | -35.11144 | 147.88227 | 3221 ft | 167 kts | 258° |
| 2026-05-01 09:39 | -35.11415 | 147.86844 | 3221 ft | 168 kts | 258° |
| 2026-05-01 09:40 | -35.11687 | 147.85464 | 3222 ft | 167 kts | 258° |
| 2026-05-01 09:40 | -35.12226 | 147.82697 | 3222 ft | 167 kts | 258° |
| 2026-05-01 09:40 | -35.12403 | 147.81782 | 3220 ft | 167 kts | 258° |
| 2026-05-01 09:41 | -35.12761 | 147.79929 | 3223 ft | 167 kts | 258° |
| 2026-05-01 09:41 | -35.13290 | 147.77178 | 3221 ft | 168 kts | 258° |
| 2026-05-01 09:41 | -35.13556 | 147.75789 | 3221 ft | 168 kts | 258° |
| 2026-05-01 09:42 | -35.13734 | 147.74870 | 3217 ft | 168 kts | 258° |
| 2026-05-01 09:42 | -35.14003 | 147.73484 | 3216 ft | 168 kts | 258° |
| 2026-05-01 09:42 | -35.14631 | 147.70246 | 3223 ft | 168 kts | 258° |
| 2026-05-01 09:43 | -35.15077 | 147.67944 | 3221 ft | 167 kts | 258° |
| 2026-05-01 09:43 | -35.15346 | 147.66558 | 3222 ft | 167 kts | 258° |
| 2026-05-01 09:43 | -35.15695 | 147.65200 | 3225 ft | 168 kts | 252° |
| 2026-05-01 09:44 | -35.16471 | 147.62517 | 3223 ft | 168 kts | 250° |
| 2026-05-01 09:44 | -35.16804 | 147.61187 | 3220 ft | 156 kts | 262° |
| 2026-05-01 09:44 | -35.16773 | 147.59910 | 3225 ft | 157 kts | 277° |
| 2026-05-01 09:45 | -35.16644 | 147.58544 | 3222 ft | 166 kts | 277° |
| 2026-05-01 09:45 | -35.16375 | 147.55766 | 3209 ft | 158 kts | 277° |
| 2026-05-01 09:45 | -35.16212 | 147.54442 | 3005 ft | 157 kts | 279° |
| 2026-05-01 09:46 | -35.16027 | 147.53132 | 2491 ft | 164 kts | 280° |
| 2026-05-01 09:46 | -35.15833 | 147.51778 | 2125 ft | 161 kts | 281° |
| 2026-05-01 09:46 | -35.15531 | 147.50099 | 2213 ft | 149 kts | 282° |
| 2026-05-01 09:46 | -35.15440 | 147.49263 | 1872 ft | 149 kts | 274° |
| 2026-05-01 09:47 | -35.15532 | 147.47998 | 1715 ft | 148 kts | 258° |
| 2026-05-01 09:47 | -35.15857 | 147.46823 | 1328 ft | 146 kts | 250° |
| 2026-05-01 09:47 | -35.16204 | 147.45772 | 1185 ft | 113 kts | 249° |
| 2026-05-01 09:47 | -35.16647 | 147.45186 | 1046 ft | 96 kts | 182° |
| 2026-05-01 09:48 | -35.16812 | 147.45730 | 847 ft | 92 kts | 62° |
| 2026-05-01 09:48 | -35.16531 | 147.46402 | 734 ft | 72 kts | 57° |
| 2026-05-01 09:48 | -35.16296 | 147.46949 | 732 ft | 65 kts | 58° |
| 2026-05-01 09:48 | -35.16159 | 147.47271 | 738 ft | 35 kts | 54° |
| 2026-05-01 09:49 | -35.16111 | 147.47379 | 724 ft | 1 kts | 50° |
| 2026-05-01 09:49 | -35.16107 | 147.47388 | 722 ft | 7 kts | 63° |
| 2026-05-01 09:49 | -35.16071 | 147.47468 | 725 ft | 12 kts | 60° |
| 2026-05-01 09:49 | -35.16018 | 147.47472 | 723 ft | 8 kts | 332° |
| 2026-05-01 09:50 | -35.15966 | 147.47440 | 722 ft | 10 kts | 332° |
| 2026-05-01 09:50 | -35.15908 | 147.47407 | 722 ft | 9 kts | 348° |
| 2026-05-01 09:50 | -35.15859 | 147.47389 | 722 ft | 8 kts | 281° |
| 2026-05-01 09:50 | -35.15850 | 147.47273 | 721 ft | 18 kts | 275° |
| 2026-05-01 09:51 | -35.15853 | 147.47136 | 720 ft | 15 kts | 235° |
| 2026-05-01 09:51 | -35.15863 | 147.47061 | 719 ft | 6 kts | 261° |
| 2026-05-01 09:51 | -35.15865 | 147.47054 | 719 ft | 0 kts | 186° |